createdAt,value
2019-02-26T00:11:01.049Z,52.67
2019-02-26T00:26:10.323Z,52.97
2019-02-26T00:41:14.978Z,56.80
2019-02-26T00:56:22.795Z,62.53
2019-02-26T01:11:30.431Z,65.47
2019-02-26T01:26:36.791Z,72.23
2019-02-26T01:41:45.451Z,58.80
2019-02-26T01:56:53.451Z,48.90
2019-02-26T02:12:00.001Z,65.93
2019-02-26T02:27:07.286Z,38.13
2019-02-26T02:42:16.245Z,85.40
2019-02-26T02:57:24.303Z,55.80
2019-02-26T03:12:30.077Z,46.30
2019-02-26T03:27:37.334Z,90.03
2019-02-26T03:42:46.284Z,52.07
2019-02-26T03:57:54.432Z,66.20
2019-02-26T04:13:01.497Z,51.70
2019-02-26T04:28:36.253Z,76.60
2019-02-26T04:43:52.109Z,66.60
2019-02-26T04:58:57.645Z,69.77
2019-02-26T05:14:04.013Z,70.63
2019-02-26T05:29:12.059Z,72.17
2019-02-26T05:44:19.350Z,63.03
2019-02-26T05:59:25.662Z,70.20
2019-02-26T06:14:33.132Z,34.13
2019-02-26T06:29:40.363Z,68.07
2019-02-26T06:44:49.473Z,35.43
2019-02-26T07:00:00.630Z,62.83
2019-02-26T07:15:11.686Z,84.10
2019-02-26T07:30:15.955Z,85.03
2019-02-26T07:45:24.459Z,41.23
2019-02-26T08:00:32.881Z,67.93
2019-02-26T08:15:39.871Z,64.00
2019-02-26T08:30:47.474Z,76.03
2019-02-26T08:45:56.085Z,75.73
2019-02-26T09:01:03.903Z,50.47
2019-02-26T09:16:10.384Z,68.27
2019-02-26T09:31:16.573Z,63.00
2019-02-26T09:46:22.931Z,68.03
2019-02-26T10:01:31.293Z,72.33
2019-02-26T10:16:38.416Z,84.63
2019-02-26T10:31:44.977Z,51.73
2019-02-26T10:46:51.416Z,45.03
2019-02-26T11:01:58.576Z,31.00
2019-02-26T11:17:05.710Z,64.70
2019-02-26T11:32:15.051Z,66.77
2019-02-26T11:47:20.672Z,79.17
2019-02-26T12:02:33.397Z,74.13
2019-02-26T12:17:38.596Z,32.47
2019-02-26T12:32:47.540Z,71.27
2019-02-26T12:47:55.238Z,77.33
2019-02-26T13:03:01.682Z,74.30
2019-02-26T13:18:08.111Z,45.80
2019-02-26T13:33:17.848Z,69.70
2019-02-26T13:48:22.884Z,41.10
2019-02-26T14:03:29.367Z,59.03
2019-02-26T14:18:37.809Z,58.23
2019-02-26T14:33:44.308Z,62.87
2019-02-26T14:48:51.879Z,53.53
2019-02-26T15:03:58.705Z,51.37
2019-02-26T15:19:04.939Z,49.90
2019-02-26T15:34:11.447Z,57.23
2019-02-26T15:49:17.684Z,62.07
2019-02-26T16:04:24.427Z,57.47
2019-02-26T16:19:31.027Z,57.47
2019-02-26T16:34:37.501Z,50.63
2019-02-26T16:49:43.950Z,56.70
2019-02-26T17:04:50.434Z,54.17
2019-02-26T17:19:56.953Z,60.50
2019-02-26T17:35:03.162Z,83.80
2019-02-26T17:50:12.808Z,55.23
2019-02-26T18:05:19.131Z,62.80
2019-02-26T18:20:28.099Z,121.50
2019-02-26T18:35:33.484Z,101.13
2019-02-26T18:50:39.837Z,140.50
2019-02-26T19:05:46.076Z,105.83
2019-02-26T19:20:52.609Z,242.90
2019-02-26T19:36:00.412Z,239.40
2019-02-26T19:51:06.952Z,142.30
2019-02-26T20:06:14.423Z,141.07
2019-02-26T20:21:20.921Z,262.77
2019-02-26T20:36:27.224Z,220.00
2019-02-26T20:51:35.286Z,221.20
2019-02-26T21:06:42.075Z,108.50
2019-02-26T21:21:49.108Z,180.27
2019-02-26T21:36:57.817Z,206.17
2019-02-26T21:52:08.695Z,149.50
2019-02-26T22:07:12.728Z,94.87
2019-02-26T22:22:19.230Z,100.77
2019-02-26T22:37:25.471Z,85.77
2019-02-26T22:52:31.734Z,74.80
2019-02-26T23:07:39.402Z,83.40
2019-02-26T23:22:46.183Z,97.30
2019-02-26T23:37:53.739Z,175.33
2019-02-26T23:53:01.227Z,151.30
